sensor_id;sensor_type;location;lat;lon;timestamp;pressure;altitude;pressure_sealevel;temperature;humidity
59831;BME280;45711;50.108;13.712;2023-04-01T13:11:35;96385.88;;;9.98;84.16
59831;BME280;45711;50.108;13.712;2023-04-01T13:14:23;96384.47;;;10.00;84.62
59831;BME280;45711;50.108;13.712;2023-04-01T13:17:10;96387.00;;;10.23;83.11
59831;BME280;45711;50.108;13.712;2023-04-01T13:23:47;96378.53;;;10.21;83.47
59831;BME280;45711;50.108;13.712;2023-04-01T13:26:45;96385.03;;;10.28;81.56
59831;BME280;45711;50.108;13.712;2023-04-01T13:29:16;96400.44;;;10.57;81.04
59831;BME280;45711;50.108;13.712;2023-04-01T13:31:55;96399.59;;;10.22;82.86
59831;BME280;45711;50.108;13.712;2023-04-01T13:34:38;96402.78;;;10.24;82.58
59831;BME280;45711;50.108;13.712;2023-04-01T13:37:19;96408.44;;;10.49;77.54
59831;BME280;45711;50.108;13.712;2023-04-01T13:39:58;96399.97;;;10.38;81.41
59831;BME280;45711;50.108;13.712;2023-04-01T13:42:31;96405.16;;;10.35;82.56
59831;BME280;45711;50.108;13.712;2023-04-01T13:45:02;96406.25;;;10.42;78.97
59831;BME280;45711;50.108;13.712;2023-04-01T13:48:02;96408.13;;;10.33;80.95
59831;BME280;45711;50.108;13.712;2023-04-01T13:51:10;96404.44;;;10.03;84.27
59831;BME280;45711;50.108;13.712;2023-04-01T13:54:11;96400.97;;;10.02;82.11
59831;BME280;45711;50.108;13.712;2023-04-01T13:56:50;96408.88;;;10.16;83.97
59831;BME280;45711;50.108;13.712;2023-04-01T13:59:50;96408.53;;;10.18;83.26
59831;BME280;45711;50.108;13.712;2023-04-01T14:02:49;96408.53;;;10.18;83.91
59831;BME280;45711;50.108;13.712;2023-04-01T14:05:38;96402.72;;;10.07;84.26
59831;BME280;45711;50.108;13.712;2023-04-01T14:08:20;96412.16;;;10.13;82.18
59831;BME280;45711;50.108;13.712;2023-04-01T14:11:02;96415.03;;;10.25;83.37
59831;BME280;45711;50.108;13.712;2023-04-01T14:13:39;96420.22;;;10.30;78.65
59831;BME280;45711;50.108;13.712;2023-04-01T14:16:20;96411.63;;;10.51;79.33
59831;BME280;45711;50.108;13.712;2023-04-01T14:19:01;96406.72;;;10.36;81.33
59831;BME280;45711;50.108;13.712;2023-04-01T14:21:38;96417.13;;;10.46;80.69
59831;BME280;45711;50.108;13.712;2023-04-01T14:27:36;96418.53;;;10.43;80.80
59831;BME280;45711;50.108;13.712;2023-04-01T14:30:30;96414.28;;;10.34;82.48
59831;BME280;45711;50.108;13.712;2023-04-01T14:33:05;96419.28;;;10.26;83.00
59831;BME280;45711;50.108;13.712;2023-04-01T14:35:38;96416.75;;;10.21;83.48
59831;BME280;45711;50.108;13.712;2023-04-01T14:38:17;96420.69;;;10.24;83.27
59831;BME280;45711;50.108;13.712;2023-04-01T14:40:58;96424.59;;;10.18;84.06
59831;BME280;45711;50.108;13.712;2023-04-01T14:43:50;96421.91;;;10.09;84.87
59831;BME280;45711;50.108;13.712;2023-04-01T14:46:35;96422.81;;;10.04;84.93
59831;BME280;45711;50.108;13.712;2023-04-01T14:50:55;96432.09;;;9.98;85.31
59831;BME280;45711;50.108;13.712;2023-04-01T14:53:25;96443.00;;;10.11;85.04
59831;BME280;45711;50.108;13.712;2023-04-01T14:59:25;96443.78;;;10.11;85.26
59831;BME280;45711;50.108;13.712;2023-04-01T15:40:59;96462.66;;;10.15;84.50
59831;BME280;45711;50.108;13.712;2023-04-01T15:44:50;96476.81;;;10.24;83.69
59831;BME280;45711;50.108;13.712;2023-04-01T15:51:20;96486.25;;;10.21;83.84
59831;BME280;45711;50.108;13.712;2023-04-01T15:57:50;96481.47;;;10.10;85.91
59831;BME280;45711;50.108;13.712;2023-04-01T16:04:46;96484.00;;;10.06;83.78
